sensor_id;sensor_type;location;lat;lon;timestamp;temperature;humidity
49821;DHT22;36893;52.520;13.450;2023-05-07T00:01:49;23.80;63.90
49821;DHT22;36893;52.520;13.450;2023-05-07T00:11:49;23.80;63.90
49821;DHT22;36893;52.520;13.450;2023-05-07T00:21:50;23.70;63.80
49821;DHT22;36893;52.520;13.450;2023-05-07T00:31:51;23.70;63.90
49821;DHT22;36893;52.520;13.450;2023-05-07T00:41:52;23.70;63.70
49821;DHT22;36893;52.520;13.450;2023-05-07T00:51:52;23.70;63.70
49821;DHT22;36893;52.520;13.450;2023-05-07T01:01:53;23.70;63.60
49821;DHT22;36893;52.520;13.450;2023-05-07T01:11:55;23.70;63.70
49821;DHT22;36893;52.520;13.450;2023-05-07T01:22:07;23.60;63.50
49821;DHT22;36893;52.520;13.450;2023-05-07T01:32:09;23.60;63.50
49821;DHT22;36893;52.520;13.450;2023-05-07T01:42:11;23.60;63.40
49821;DHT22;36893;52.520;13.450;2023-05-07T01:52:13;23.60;63.40
49821;DHT22;36893;52.520;13.450;2023-05-07T02:02:13;23.60;63.30
49821;DHT22;36893;52.520;13.450;2023-05-07T02:12:14;23.50;63.20
49821;DHT22;36893;52.520;13.450;2023-05-07T02:22:15;23.50;63.20
49821;DHT22;36893;52.520;13.450;2023-05-07T02:32:16;23.60;63.30
49821;DHT22;36893;52.520;13.450;2023-05-07T02:42:16;23.50;63.20
49821;DHT22;36893;52.520;13.450;2023-05-07T02:52:17;23.50;63.20
49821;DHT22;36893;52.520;13.450;2023-05-07T03:02:18;23.50;63.10
49821;DHT22;36893;52.520;13.450;2023-05-07T03:12:18;23.40;63.00
49821;DHT22;36893;52.520;13.450;2023-05-07T03:22:19;23.40;63.00
49821;DHT22;36893;52.520;13.450;2023-05-07T03:32:20;23.50;63.10
49821;DHT22;36893;52.520;13.450;2023-05-07T03:42:21;23.50;63.10
49821;DHT22;36893;52.520;13.450;2023-05-07T03:52:22;23.50;63.10
49821;DHT22;36893;52.520;13.450;2023-05-07T04:02:26;23.40;63.00
49821;DHT22;36893;52.520;13.450;2023-05-07T04:12:26;23.40;62.90
49821;DHT22;36893;52.520;13.450;2023-05-07T04:22:27;23.40;62.90
49821;DHT22;36893;52.520;13.450;2023-05-07T04:32:29;23.40;62.90
49821;DHT22;36893;52.520;13.450;2023-05-07T04:42:30;23.40;63.70
49821;DHT22;36893;52.520;13.450;2023-05-07T04:52:31;23.40;63.00
49821;DHT22;36893;52.520;13.450;2023-05-07T05:02:32;23.30;63.00
49821;DHT22;36893;52.520;13.450;2023-05-07T05:12:32;23.30;63.00
49821;DHT22;36893;52.520;13.450;2023-05-07T05:22:34;23.30;63.10
49821;DHT22;36893;52.520;13.450;2023-05-07T05:32:34;23.40;63.10
49821;DHT22;36893;52.520;13.450;2023-05-07T05:42:35;23.30;63.10
49821;DHT22;36893;52.520;13.450;2023-05-07T05:52:36;23.40;63.20
49821;DHT22;36893;52.520;13.450;2023-05-07T06:02:37;23.30;63.10
49821;DHT22;36893;52.520;13.450;2023-05-07T06:12:37;23.30;63.20
49821;DHT22;36893;52.520;13.450;2023-05-07T06:22:38;23.30;63.40
49821;DHT22;36893;52.520;13.450;2023-05-07T06:32:40;23.40;63.60
49821;DHT22;36893;52.520;13.450;2023-05-07T06:42:41;23.40;63.90
49821;DHT22;36893;52.520;13.450;2023-05-07T06:52:41;23.40;64.10
49821;DHT22;36893;52.520;13.450;2023-05-07T07:02:42;23.40;64.20
49821;DHT22;36893;52.520;13.450;2023-05-07T07:12:43;23.40;64.30
49821;DHT22;36893;52.520;13.450;2023-05-07T07:22:44;23.40;64.40
49821;DHT22;36893;52.520;13.450;2023-05-07T07:32:44;23.40;64.60
49821;DHT22;36893;52.520;13.450;2023-05-07T07:42:45;23.40;64.90
49821;DHT22;36893;52.520;13.450;2023-05-07T07:52:46;23.50;65.30
49821;DHT22;36893;52.520;13.450;2023-05-07T08:02:48;23.50;66.20
49821;DHT22;36893;52.520;13.450;2023-05-07T08:12:49;23.50;65.10
49821;DHT22;36893;52.520;13.450;2023-05-07T08:22:51;23.30;64.20
49821;DHT22;36893;52.520;13.450;2023-05-07T08:32:52;23.20;63.30
49821;DHT22;36893;52.520;13.450;2023-05-07T08:42:53;23.10;62.70
49821;DHT22;36893;52.520;13.450;2023-05-07T08:52:54;23.10;62.00
49821;DHT22;36893;52.520;13.450;2023-05-07T09:02:56;23.00;61.30
49821;DHT22;36893;52.520;13.450;2023-05-07T09:12:57;23.00;60.90
49821;DHT22;36893;52.520;13.450;2023-05-07T09:22:57;22.90;60.40
49821;DHT22;36893;52.520;13.450;2023-05-07T09:32:59;22.90;60.00
49821;DHT22;36893;52.520;13.450;2023-05-07T09:43:10;22.90;59.70
49821;DHT22;36893;52.520;13.450;2023-05-07T09:53:13;22.90;59.50
49821;DHT22;36893;52.520;13.450;2023-05-07T10:03:15;22.90;59.30
49821;DHT22;36893;52.520;13.450;2023-05-07T10:13:17;22.90;59.10
49821;DHT22;36893;52.520;13.450;2023-05-07T10:23:23;22.80;58.90
49821;DHT22;36893;52.520;13.450;2023-05-07T10:33:27;22.80;58.70
49821;DHT22;36893;52.520;13.450;2023-05-07T10:43:43;22.80;58.50
49821;DHT22;36893;52.520;13.450;2023-05-07T10:53:45;22.80;59.00
49821;DHT22;36893;52.520;13.450;2023-05-07T11:04:12;22.70;58.20
49821;DHT22;36893;52.520;13.450;2023-05-07T11:14:15;22.80;58.10
49821;DHT22;36893;52.520;13.450;2023-05-07T11:24:42;22.80;58.00
49821;DHT22;36893;52.520;13.450;2023-05-07T11:34:44;22.90;57.80
49821;DHT22;36893;52.520;13.450;2023-05-07T11:44:45;22.90;57.70
49821;DHT22;36893;52.520;13.450;2023-05-07T11:54:58;22.90;57.60
49821;DHT22;36893;52.520;13.450;2023-05-07T12:05:00;22.90;57.40
49821;DHT22;36893;52.520;13.450;2023-05-07T12:15:01;22.90;57.30
49821;DHT22;36893;52.520;13.450;2023-05-07T12:25:01;22.90;57.20
49821;DHT22;36893;52.520;13.450;2023-05-07T12:35:03;22.90;57.00
49821;DHT22;36893;52.520;13.450;2023-05-07T12:55:12;23.00;56.90
49821;DHT22;36893;52.520;13.450;2023-05-07T13:05:14;22.90;56.90
49821;DHT22;36893;52.520;13.450;2023-05-07T13:15:15;22.90;56.80
49821;DHT22;36893;52.520;13.450;2023-05-07T13:25:16;22.90;56.80
49821;DHT22;36893;52.520;13.450;2023-05-07T13:35:17;22.90;56.70
49821;DHT22;36893;52.520;13.450;2023-05-07T13:45:23;22.90;56.50
49821;DHT22;36893;52.520;13.450;2023-05-07T13:55:27;22.90;57.00
49821;DHT22;36893;52.520;13.450;2023-05-07T14:05:29;22.90;56.40
49821;DHT22;36893;52.520;13.450;2023-05-07T14:15:29;22.90;56.30
49821;DHT22;36893;52.520;13.450;2023-05-07T14:25:30;22.90;56.20
49821;DHT22;36893;52.520;13.450;2023-05-07T14:35:31;22.90;56.10
49821;DHT22;36893;52.520;13.450;2023-05-07T14:45:31;22.90;56.10
49821;DHT22;36893;52.520;13.450;2023-05-07T14:55:32;22.90;56.00
49821;DHT22;36893;52.520;13.450;2023-05-07T15:05:42;22.90;56.00
49821;DHT22;36893;52.520;13.450;2023-05-07T15:15:43;22.90;55.90
49821;DHT22;36893;52.520;13.450;2023-05-07T15:25:44;22.90;55.90
49821;DHT22;36893;52.520;13.450;2023-05-07T15:35:45;22.80;55.70
49821;DHT22;36893;52.520;13.450;2023-05-07T15:45:46;22.90;55.80
49821;DHT22;36893;52.520;13.450;2023-05-07T15:55:47;22.90;55.70
49821;DHT22;36893;52.520;13.450;2023-05-07T16:05:48;22.90;55.70
49821;DHT22;36893;52.520;13.450;2023-05-07T16:15:49;22.90;55.70
49821;DHT22;36893;52.520;13.450;2023-05-07T16:25:55;22.90;55.70
49821;DHT22;36893;52.520;13.450;2023-05-07T16:35:56;22.80;55.50
49821;DHT22;36893;52.520;13.450;2023-05-07T16:45:57;22.80;55.40
49821;DHT22;36893;52.520;13.450;2023-05-07T16:56:00;22.80;55.40
49821;DHT22;36893;52.520;13.450;2023-05-07T17:06:03;22.80;55.50
49821;DHT22;36893;52.520;13.450;2023-05-07T17:16:04;22.80;55.60
49821;DHT22;36893;52.520;13.450;2023-05-07T17:26:13;22.80;55.70
49821;DHT22;36893;52.520;13.450;2023-05-07T17:36:14;22.70;55.80
49821;DHT22;36893;52.520;13.450;2023-05-07T17:46:15;22.80;55.90
49821;DHT22;36893;52.520;13.450;2023-05-07T17:56:15;22.80;56.00
49821;DHT22;36893;52.520;13.450;2023-05-07T18:06:16;22.80;56.20
49821;DHT22;36893;52.520;13.450;2023-05-07T18:16:18;22.80;56.40
49821;DHT22;36893;52.520;13.450;2023-05-07T18:26:19;22.80;56.50
49821;DHT22;36893;52.520;13.450;2023-05-07T18:36:20;22.80;56.60
49821;DHT22;36893;52.520;13.450;2023-05-07T18:46:24;22.90;56.70
49821;DHT22;36893;52.520;13.450;2023-05-07T18:56:24;22.80;56.70
49821;DHT22;36893;52.520;13.450;2023-05-07T19:06:25;22.80;56.90
49821;DHT22;36893;52.520;13.450;2023-05-07T19:16:26;22.80;57.00
49821;DHT22;36893;52.520;13.450;2023-05-07T19:26:26;22.80;57.00
49821;DHT22;36893;52.520;13.450;2023-05-07T19:36:27;22.80;57.10
49821;DHT22;36893;52.520;13.450;2023-05-07T19:46:28;22.80;57.20
49821;DHT22;36893;52.520;13.450;2023-05-07T19:56:28;22.80;57.20
49821;DHT22;36893;52.520;13.450;2023-05-07T20:06:32;22.80;57.30
49821;DHT22;36893;52.520;13.450;2023-05-07T20:16:32;22.80;57.30
49821;DHT22;36893;52.520;13.450;2023-05-07T20:26:33;22.80;57.40
49821;DHT22;36893;52.520;13.450;2023-05-07T20:36:34;22.90;57.50
49821;DHT22;36893;52.520;13.450;2023-05-07T20:46:36;22.90;57.50
49821;DHT22;36893;52.520;13.450;2023-05-07T20:56:37;22.80;57.50
49821;DHT22;36893;52.520;13.450;2023-05-07T21:06:38;22.90;57.60
49821;DHT22;36893;52.520;13.450;2023-05-07T21:16:39;22.90;57.60
49821;DHT22;36893;52.520;13.450;2023-05-07T21:26:41;22.90;57.60
49821;DHT22;36893;52.520;13.450;2023-05-07T21:36:42;22.80;57.60
49821;DHT22;36893;52.520;13.450;2023-05-07T21:46:43;22.80;57.60
49821;DHT22;36893;52.520;13.450;2023-05-07T21:56:43;22.90;57.60
49821;DHT22;36893;52.520;13.450;2023-05-07T22:06:44;22.90;57.60
49821;DHT22;36893;52.520;13.450;2023-05-07T22:16:45;22.90;57.60
49821;DHT22;36893;52.520;13.450;2023-05-07T22:26:46;22.80;57.60
49821;DHT22;36893;52.520;13.450;2023-05-07T22:36:47;22.80;57.60
49821;DHT22;36893;52.520;13.450;2023-05-07T22:46:48;22.90;57.70
49821;DHT22;36893;52.520;13.450;2023-05-07T22:56:49;22.80;57.70
49821;DHT22;36893;52.520;13.450;2023-05-07T23:06:49;22.90;57.70
49821;DHT22;36893;52.520;13.450;2023-05-07T23:16:50;22.80;57.70
49821;DHT22;36893;52.520;13.450;2023-05-07T23:26:50;22.80;57.80
49821;DHT22;36893;52.520;13.450;2023-05-07T23:36:51;22.80;57.80
49821;DHT22;36893;52.520;13.450;2023-05-07T23:46:52;22.80;57.80
49821;DHT22;36893;52.520;13.450;2023-05-07T23:56:53;22.80;57.80
